sensor_id;sensor_type;location;lat;lon;timestamp;P1;durP1;ratioP1;P2;durP2;ratioP2
50779;SDS011;36748;37.428;-121.972;2022-09-24T00:01:17;5.13;;;2.63;;
50779;SDS011;36748;37.428;-121.972;2022-09-24T00:03:55;4.65;;;2.30;;
50779;SDS011;36748;37.428;-121.972;2022-09-24T00:06:27;7.80;;;2.33;;
50779;SDS011;36748;37.428;-121.972;2022-09-24T00:08:54;5.13;;;2.30;;
50779;SDS011;36748;37.428;-121.972;2022-09-24T00:11:22;11.93;;;2.72;;
50779;SDS011;36748;37.428;-121.972;2022-09-24T00:13:50;4.88;;;2.20;;
50779;SDS011;36748;37.428;-121.972;2022-09-24T00:16:18;6.97;;;2.20;;
50779;SDS011;36748;37.428;-121.972;2022-09-24T00:18:45;7.03;;;2.20;;
50779;SDS011;36748;37.428;-121.972;2022-09-24T00:21:19;7.05;;;2.05;;
50779;SDS011;36748;37.428;-121.972;2022-09-24T00:23:49;5.60;;;1.90;;
50779;SDS011;36748;37.428;-121.972;2022-09-24T00:26:17;5.05;;;2.00;;
50779;SDS011;36748;37.428;-121.972;2022-09-24T00:29:02;3.65;;;1.80;;
50779;SDS011;36748;37.428;-121.972;2022-09-24T00:31:29;4.72;;;2.10;;
50779;SDS011;36748;37.428;-121.972;2022-09-24T00:33:56;7.15;;;1.88;;
50779;SDS011;36748;37.428;-121.972;2022-09-24T00:36:22;4.22;;;2.15;;
50779;SDS011;36748;37.428;-121.972;2022-09-24T00:38:50;6.20;;;1.75;;
50779;SDS011;36748;37.428;-121.972;2022-09-24T00:41:17;5.57;;;2.05;;
50779;SDS011;36748;37.428;-121.972;2022-09-24T00:43:45;7.22;;;2.28;;
50779;SDS011;36748;37.428;-121.972;2022-09-24T00:48:52;5.93;;;1.80;;
50779;SDS011;36748;37.428;-121.972;2022-09-24T00:51:54;11.43;;;1.98;;
50779;SDS011;36748;37.428;-121.972;2022-09-24T00:54:29;6.25;;;1.90;;
50779;SDS011;36748;37.428;-121.972;2022-09-24T00:56:56;8.82;;;1.95;;
50779;SDS011;36748;37.428;-121.972;2022-09-24T00:59:25;8.18;;;2.10;;
50779;SDS011;36748;37.428;-121.972;2022-09-24T01:01:52;9.88;;;1.80;;
50779;SDS011;36748;37.428;-121.972;2022-09-24T01:04:23;6.55;;;1.73;;
50779;SDS011;36748;37.428;-121.972;2022-09-24T01:06:51;11.00;;;2.03;;
50779;SDS011;36748;37.428;-121.972;2022-09-24T01:09:18;6.68;;;1.85;;
50779;SDS011;36748;37.428;-121.972;2022-09-24T01:15:10;10.05;;;2.22;;
50779;SDS011;36748;37.428;-121.972;2022-09-24T01:18:00;3.45;;;1.80;;
50779;SDS011;36748;37.428;-121.972;2022-09-24T01:26:12;6.35;;;1.58;;
50779;SDS011;36748;37.428;-121.972;2022-09-24T01:31:40;3.30;;;1.65;;
50779;SDS011;36748;37.428;-121.972;2022-09-24T01:34:11;2.85;;;1.50;;
50779;SDS011;36748;37.428;-121.972;2022-09-24T01:36:39;4.18;;;1.85;;
50779;SDS011;36748;37.428;-121.972;2022-09-24T01:39:07;4.75;;;1.58;;
50779;SDS011;36748;37.428;-121.972;2022-09-24T01:41:34;3.13;;;1.60;;
50779;SDS011;36748;37.428;-121.972;2022-09-24T01:44:01;6.13;;;1.85;;
50779;SDS011;36748;37.428;-121.972;2022-09-24T01:46:31;6.57;;;1.75;;
50779;SDS011;36748;37.428;-121.972;2022-09-24T01:48:57;5.28;;;1.48;;
50779;SDS011;36748;37.428;-121.972;2022-09-24T01:51:32;3.15;;;1.83;;
50779;SDS011;36748;37.428;-121.972;2022-09-24T01:54:03;2.85;;;1.60;;
50779;SDS011;36748;37.428;-121.972;2022-09-24T01:56:40;4.97;;;2.00;;
50779;SDS011;36748;37.428;-121.972;2022-09-24T01:59:17;3.80;;;2.00;;
50779;SDS011;36748;37.428;-121.972;2022-09-24T02:02:10;5.25;;;2.42;;
50779;SDS011;36748;37.428;-121.972;2022-09-24T02:04:40;3.87;;;2.30;;
50779;SDS011;36748;37.428;-121.972;2022-09-24T02:07:11;6.13;;;2.40;;
50779;SDS011;36748;37.428;-121.972;2022-09-24T02:09:41;4.57;;;2.50;;
50779;SDS011;36748;37.428;-121.972;2022-09-24T02:12:09;6.68;;;2.67;;
50779;SDS011;36748;37.428;-121.972;2022-09-24T02:14:41;9.02;;;2.60;;
50779;SDS011;36748;37.428;-121.972;2022-09-24T02:17:12;5.28;;;2.97;;
50779;SDS011;36748;37.428;-121.972;2022-09-24T02:19:40;4.25;;;2.60;;
50779;SDS011;36748;37.428;-121.972;2022-09-24T02:22:07;5.78;;;2.70;;
50779;SDS011;36748;37.428;-121.972;2022-09-24T02:24:39;6.55;;;2.75;;
50779;SDS011;36748;37.428;-121.972;2022-09-24T02:27:09;5.60;;;2.70;;
50779;SDS011;36748;37.428;-121.972;2022-09-24T02:29:35;5.03;;;2.70;;
50779;SDS011;36748;37.428;-121.972;2022-09-24T02:32:02;6.70;;;2.78;;
50779;SDS011;36748;37.428;-121.972;2022-09-24T02:34:31;5.45;;;2.92;;
50779;SDS011;36748;37.428;-121.972;2022-09-24T02:37:10;7.03;;;2.88;;
50779;SDS011;36748;37.428;-121.972;2022-09-24T02:39:39;6.15;;;2.55;;
50779;SDS011;36748;37.428;-121.972;2022-09-24T02:42:05;11.35;;;2.63;;
50779;SDS011;36748;37.428;-121.972;2022-09-24T02:44:33;9.25;;;3.05;;
50779;SDS011;36748;37.428;-121.972;2022-09-24T02:47:03;7.47;;;2.80;;
50779;SDS011;36748;37.428;-121.972;2022-09-24T02:49:29;8.15;;;3.10;;
50779;SDS011;36748;37.428;-121.972;2022-09-24T02:51:55;8.30;;;3.20;;
50779;SDS011;36748;37.428;-121.972;2022-09-24T02:54:22;12.15;;;3.67;;
50779;SDS011;36748;37.428;-121.972;2022-09-24T02:56:49;11.52;;;4.15;;
50779;SDS011;36748;37.428;-121.972;2022-09-24T02:59:16;31.35;;;4.28;;
50779;SDS011;36748;37.428;-121.972;2022-09-24T03:01:43;8.23;;;4.60;;
50779;SDS011;36748;37.428;-121.972;2022-09-24T03:04:10;14.30;;;5.57;;
50779;SDS011;36748;37.428;-121.972;2022-09-24T03:06:36;14.43;;;5.55;;
50779;SDS011;36748;37.428;-121.972;2022-09-24T03:09:02;12.23;;;6.07;;
50779;SDS011;36748;37.428;-121.972;2022-09-24T03:11:29;14.20;;;6.72;;
50779;SDS011;36748;37.428;-121.972;2022-09-24T03:13:57;18.67;;;6.32;;
50779;SDS011;36748;37.428;-121.972;2022-09-24T03:16:24;15.70;;;6.50;;
50779;SDS011;36748;37.428;-121.972;2022-09-24T03:18:50;9.98;;;6.15;;
50779;SDS011;36748;37.428;-121.972;2022-09-24T03:21:17;13.60;;;5.47;;
50779;SDS011;36748;37.428;-121.972;2022-09-24T03:23:45;10.23;;;5.28;;
50779;SDS011;36748;37.428;-121.972;2022-09-24T03:26:11;10.35;;;5.53;;
50779;SDS011;36748;37.428;-121.972;2022-09-24T03:28:38;9.43;;;4.93;;
50779;SDS011;36748;37.428;-121.972;2022-09-24T03:31:04;9.60;;;4.70;;
50779;SDS011;36748;37.428;-121.972;2022-09-24T03:33:33;9.30;;;4.05;;
50779;SDS011;36748;37.428;-121.972;2022-09-24T03:36:08;10.10;;;4.30;;
50779;SDS011;36748;37.428;-121.972;2022-09-24T03:38:37;6.60;;;3.88;;
50779;SDS011;36748;37.428;-121.972;2022-09-24T03:41:04;7.93;;;4.03;;
50779;SDS011;36748;37.428;-121.972;2022-09-24T03:43:31;8.93;;;4.00;;
50779;SDS011;36748;37.428;-121.972;2022-09-24T03:45:58;7.15;;;4.03;;
50779;SDS011;36748;37.428;-121.972;2022-09-24T03:48:25;5.72;;;3.42;;
50779;SDS011;36748;37.428;-121.972;2022-09-24T03:50:51;5.93;;;3.50;;
50779;SDS011;36748;37.428;-121.972;2022-09-24T03:53:18;7.78;;;3.55;;
50779;SDS011;36748;37.428;-121.972;2022-09-24T03:55:46;9.07;;;3.60;;
50779;SDS011;36748;37.428;-121.972;2022-09-24T03:58:17;11.45;;;3.80;;
50779;SDS011;36748;37.428;-121.972;2022-09-24T04:00:43;6.97;;;3.30;;
50779;SDS011;36748;37.428;-121.972;2022-09-24T04:03:09;5.07;;;3.05;;
50779;SDS011;36748;37.428;-121.972;2022-09-24T04:05:36;10.13;;;3.20;;
50779;SDS011;36748;37.428;-121.972;2022-09-24T04:08:02;6.47;;;3.05;;
50779;SDS011;36748;37.428;-121.972;2022-09-24T04:10:32;7.13;;;3.00;;
50779;SDS011;36748;37.428;-121.972;2022-09-24T04:13:01;11.52;;;3.60;;
50779;SDS011;36748;37.428;-121.972;2022-09-24T04:15:27;6.55;;;2.83;;
50779;SDS011;36748;37.428;-121.972;2022-09-24T04:17:54;8.15;;;3.20;;
50779;SDS011;36748;37.428;-121.972;2022-09-24T04:20:22;5.43;;;2.70;;
50779;SDS011;36748;37.428;-121.972;2022-09-24T04:22:53;5.32;;;3.08;;
50779;SDS011;36748;37.428;-121.972;2022-09-24T04:25:21;8.80;;;3.00;;
50779;SDS011;36748;37.428;-121.972;2022-09-24T04:27:52;6.00;;;2.88;;
50779;SDS011;36748;37.428;-121.972;2022-09-24T04:30:19;5.90;;;2.80;;
50779;SDS011;36748;37.428;-121.972;2022-09-24T04:32:46;10.52;;;3.50;;
50779;SDS011;36748;37.428;-121.972;2022-09-24T04:35:13;8.23;;;2.83;;
50779;SDS011;36748;37.428;-121.972;2022-09-24T04:37:42;5.07;;;3.03;;
50779;SDS011;36748;37.428;-121.972;2022-09-24T04:40:08;4.60;;;2.88;;
50779;SDS011;36748;37.428;-121.972;2022-09-24T04:42:39;7.53;;;2.83;;
50779;SDS011;36748;37.428;-121.972;2022-09-24T04:45:07;5.60;;;2.75;;
50779;SDS011;36748;37.428;-121.972;2022-09-24T04:47:36;4.88;;;2.40;;
50779;SDS011;36748;37.428;-121.972;2022-09-24T04:50:05;6.30;;;2.53;;
50779;SDS011;36748;37.428;-121.972;2022-09-24T04:52:32;7.03;;;2.80;;
50779;SDS011;36748;37.428;-121.972;2022-09-24T04:54:59;4.85;;;2.50;;
50779;SDS011;36748;37.428;-121.972;2022-09-24T04:57:25;6.15;;;2.67;;
50779;SDS011;36748;37.428;-121.972;2022-09-24T04:59:52;6.45;;;2.72;;
50779;SDS011;36748;37.428;-121.972;2022-09-24T05:02:18;6.85;;;2.40;;
50779;SDS011;36748;37.428;-121.972;2022-09-24T05:04:44;6.20;;;2.30;;
50779;SDS011;36748;37.428;-121.972;2022-09-24T05:07:11;7.13;;;2.30;;
50779;SDS011;36748;37.428;-121.972;2022-09-24T05:09:37;4.13;;;2.25;;
50779;SDS011;36748;37.428;-121.972;2022-09-24T05:12:03;3.33;;;2.67;;
50779;SDS011;36748;37.428;-121.972;2022-09-24T05:14:30;4.20;;;2.55;;
50779;SDS011;36748;37.428;-121.972;2022-09-24T05:16:56;6.60;;;3.00;;
50779;SDS011;36748;37.428;-121.972;2022-09-24T05:19:22;4.28;;;2.60;;
50779;SDS011;36748;37.428;-121.972;2022-09-24T05:21:49;3.30;;;2.10;;
50779;SDS011;36748;37.428;-121.972;2022-09-24T05:24:15;4.72;;;2.28;;
50779;SDS011;36748;37.428;-121.972;2022-09-24T05:26:41;3.67;;;2.15;;
50779;SDS011;36748;37.428;-121.972;2022-09-24T05:29:25;5.38;;;2.47;;
50779;SDS011;36748;37.428;-121.972;2022-09-24T05:31:51;4.20;;;2.40;;
50779;SDS011;36748;37.428;-121.972;2022-09-24T05:34:18;2.65;;;2.10;;
50779;SDS011;36748;37.428;-121.972;2022-09-24T05:36:44;4.18;;;2.25;;
50779;SDS011;36748;37.428;-121.972;2022-09-24T05:39:13;3.67;;;2.28;;
50779;SDS011;36748;37.428;-121.972;2022-09-24T05:41:39;3.03;;;2.17;;
50779;SDS011;36748;37.428;-121.972;2022-09-24T05:44:06;3.38;;;2.10;;
50779;SDS011;36748;37.428;-121.972;2022-09-24T05:46:32;3.97;;;2.28;;
50779;SDS011;36748;37.428;-121.972;2022-09-24T05:48:58;4.00;;;2.28;;
50779;SDS011;36748;37.428;-121.972;2022-09-24T05:51:24;4.57;;;2.67;;
50779;SDS011;36748;37.428;-121.972;2022-09-24T05:53:51;4.70;;;2.15;;
50779;SDS011;36748;37.428;-121.972;2022-09-24T05:56:17;3.58;;;2.17;;
50779;SDS011;36748;37.428;-121.972;2022-09-24T05:58:43;2.88;;;2.00;;
50779;SDS011;36748;37.428;-121.972;2022-09-24T06:01:09;3.80;;;2.17;;
50779;SDS011;36748;37.428;-121.972;2022-09-24T06:03:35;3.78;;;2.17;;
50779;SDS011;36748;37.428;-121.972;2022-09-24T06:06:01;3.45;;;2.28;;
50779;SDS011;36748;37.428;-121.972;2022-09-24T06:08:28;2.70;;;1.88;;
50779;SDS011;36748;37.428;-121.972;2022-09-24T06:10:59;4.20;;;2.22;;
50779;SDS011;36748;37.428;-121.972;2022-09-24T06:13:29;3.45;;;2.03;;
50779;SDS011;36748;37.428;-121.972;2022-09-24T06:16:04;2.90;;;2.28;;
50779;SDS011;36748;37.428;-121.972;2022-09-24T06:18:36;3.67;;;1.90;;
50779;SDS011;36748;37.428;-121.972;2022-09-24T06:21:09;5.45;;;2.53;;
50779;SDS011;36748;37.428;-121.972;2022-09-24T06:23:37;2.78;;;2.08;;
50779;SDS011;36748;37.428;-121.972;2022-09-24T06:26:04;4.03;;;2.05;;
50779;SDS011;36748;37.428;-121.972;2022-09-24T06:28:34;4.57;;;2.00;;
50779;SDS011;36748;37.428;-121.972;2022-09-24T06:31:01;5.35;;;2.03;;
50779;SDS011;36748;37.428;-121.972;2022-09-24T06:33:27;4.47;;;2.20;;
50779;SDS011;36748;37.428;-121.972;2022-09-24T06:35:57;3.25;;;1.73;;
50779;SDS011;36748;37.428;-121.972;2022-09-24T06:38:25;3.67;;;1.88;;
50779;SDS011;36748;37.428;-121.972;2022-09-24T06:40:51;3.03;;;2.10;;
50779;SDS011;36748;37.428;-121.972;2022-09-24T06:43:17;2.28;;;1.80;;
50779;SDS011;36748;37.428;-121.972;2022-09-24T06:45:46;2.78;;;1.90;;
50779;SDS011;36748;37.428;-121.972;2022-09-24T06:48:13;4.03;;;1.85;;
50779;SDS011;36748;37.428;-121.972;2022-09-24T06:50:40;4.05;;;2.03;;
50779;SDS011;36748;37.428;-121.972;2022-09-24T06:53:08;3.58;;;1.73;;
50779;SDS011;36748;37.428;-121.972;2022-09-24T06:55:35;2.83;;;1.92;;
50779;SDS011;36748;37.428;-121.972;2022-09-24T06:58:06;2.97;;;1.80;;
50779;SDS011;36748;37.428;-121.972;2022-09-24T07:00:40;2.92;;;1.80;;
50779;SDS011;36748;37.428;-121.972;2022-09-24T07:03:14;3.72;;;2.10;;
50779;SDS011;36748;37.428;-121.972;2022-09-24T07:05:41;2.70;;;2.00;;
50779;SDS011;36748;37.428;-121.972;2022-09-24T07:08:07;2.20;;;1.85;;
50779;SDS011;36748;37.428;-121.972;2022-09-24T07:10:33;2.33;;;1.67;;
50779;SDS011;36748;37.428;-121.972;2022-09-24T07:12:59;2.67;;;2.00;;
50779;SDS011;36748;37.428;-121.972;2022-09-24T07:15:25;3.70;;;1.88;;
50779;SDS011;36748;37.428;-121.972;2022-09-24T07:17:58;2.88;;;1.70;;
50779;SDS011;36748;37.428;-121.972;2022-09-24T07:20:27;3.05;;;1.65;;
50779;SDS011;36748;37.428;-121.972;2022-09-24T07:22:54;3.22;;;1.92;;
50779;SDS011;36748;37.428;-121.972;2022-09-24T07:25:24;3.42;;;1.98;;
50779;SDS011;36748;37.428;-121.972;2022-09-24T07:27:50;2.00;;;1.60;;
50779;SDS011;36748;37.428;-121.972;2022-09-24T07:30:16;2.42;;;1.95;;
50779;SDS011;36748;37.428;-121.972;2022-09-24T07:32:42;2.80;;;1.80;;
50779;SDS011;36748;37.428;-121.972;2022-09-24T07:35:08;2.05;;;1.80;;
50779;SDS011;36748;37.428;-121.972;2022-09-24T07:37:34;4.20;;;1.90;;
50779;SDS011;36748;37.428;-121.972;2022-09-24T07:40:03;3.05;;;1.80;;
50779;SDS011;36748;37.428;-121.972;2022-09-24T07:42:29;2.13;;;1.40;;
50779;SDS011;36748;37.428;-121.972;2022-09-24T07:44:56;2.75;;;1.55;;
50779;SDS011;36748;37.428;-121.972;2022-09-24T07:47:22;2.75;;;1.80;;
50779;SDS011;36748;37.428;-121.972;2022-09-24T07:49:48;3.90;;;2.20;;
50779;SDS011;36748;37.428;-121.972;2022-09-24T07:52:14;3.42;;;1.90;;
50779;SDS011;36748;37.428;-121.972;2022-09-24T07:54:40;3.08;;;1.63;;
50779;SDS011;36748;37.428;-121.972;2022-09-24T07:57:10;2.15;;;1.67;;
50779;SDS011;36748;37.428;-121.972;2022-09-24T07:59:39;2.30;;;1.67;;
50779;SDS011;36748;37.428;-121.972;2022-09-24T08:02:23;3.85;;;1.88;;
50779;SDS011;36748;37.428;-121.972;2022-09-24T08:04:49;2.13;;;1.83;;
50779;SDS011;36748;37.428;-121.972;2022-09-24T08:07:15;2.58;;;1.70;;
50779;SDS011;36748;37.428;-121.972;2022-09-24T08:09:41;5.05;;;1.70;;
50779;SDS011;36748;37.428;-121.972;2022-09-24T08:12:07;2.30;;;1.58;;
50779;SDS011;36748;37.428;-121.972;2022-09-24T08:14:35;3.03;;;1.85;;
50779;SDS011;36748;37.428;-121.972;2022-09-24T08:17:01;3.50;;;1.70;;
50779;SDS011;36748;37.428;-121.972;2022-09-24T08:19:27;2.28;;;1.70;;
50779;SDS011;36748;37.428;-121.972;2022-09-24T08:21:55;3.00;;;1.85;;
50779;SDS011;36748;37.428;-121.972;2022-09-24T08:24:22;5.78;;;2.08;;
50779;SDS011;36748;37.428;-121.972;2022-09-24T08:26:48;3.47;;;1.85;;
50779;SDS011;36748;37.428;-121.972;2022-09-24T08:29:14;2.53;;;1.83;;
50779;SDS011;36748;37.428;-121.972;2022-09-24T08:31:41;3.10;;;2.10;;
50779;SDS011;36748;37.428;-121.972;2022-09-24T08:34:07;10.40;;;2.38;;
50779;SDS011;36748;37.428;-121.972;2022-09-24T08:36:33;2.70;;;1.80;;
50779;SDS011;36748;37.428;-121.972;2022-09-24T08:38:59;3.42;;;1.88;;
50779;SDS011;36748;37.428;-121.972;2022-09-24T08:44:36;4.03;;;2.13;;
50779;SDS011;36748;37.428;-121.972;2022-09-24T08:47:42;3.45;;;1.95;;
50779;SDS011;36748;37.428;-121.972;2022-09-24T08:50:14;3.95;;;1.90;;
50779;SDS011;36748;37.428;-121.972;2022-09-24T08:52:47;4.40;;;1.90;;
50779;SDS011;36748;37.428;-121.972;2022-09-24T08:55:22;4.13;;;1.75;;
50779;SDS011;36748;37.428;-121.972;2022-09-24T08:58:07;2.50;;;1.50;;
50779;SDS011;36748;37.428;-121.972;2022-09-24T09:09:19;1.90;;;1.60;;
50779;SDS011;36748;37.428;-121.972;2022-09-24T09:12:07;3.35;;;2.00;;
50779;SDS011;36748;37.428;-121.972;2022-09-24T09:15:06;3.05;;;1.92;;
50779;SDS011;36748;37.428;-121.972;2022-09-24T09:17:48;3.17;;;1.77;;
50779;SDS011;36748;37.428;-121.972;2022-09-24T09:20:20;2.70;;;1.73;;
50779;SDS011;36748;37.428;-121.972;2022-09-24T09:22:51;4.47;;;1.92;;
50779;SDS011;36748;37.428;-121.972;2022-09-24T09:25:23;3.83;;;1.90;;
50779;SDS011;36748;37.428;-121.972;2022-09-24T09:28:14;5.47;;;1.98;;
50779;SDS011;36748;37.428;-121.972;2022-09-24T09:30:45;3.13;;;1.98;;
50779;SDS011;36748;37.428;-121.972;2022-09-24T09:33:42;5.40;;;1.70;;
50779;SDS011;36748;37.428;-121.972;2022-09-24T09:39:00;5.15;;;2.10;;
50779;SDS011;36748;37.428;-121.972;2022-09-24T09:41:39;2.67;;;1.80;;
50779;SDS011;36748;37.428;-121.972;2022-09-24T09:44:14;2.30;;;1.50;;
50779;SDS011;36748;37.428;-121.972;2022-09-24T09:46:55;3.53;;;1.55;;
50779;SDS011;36748;37.428;-121.972;2022-09-24T09:49:32;5.53;;;1.65;;
50779;SDS011;36748;37.428;-121.972;2022-09-24T09:52:01;5.13;;;1.70;;
50779;SDS011;36748;37.428;-121.972;2022-09-24T09:54:38;4.13;;;1.50;;
50779;SDS011;36748;37.428;-121.972;2022-09-24T09:57:06;4.70;;;1.98;;
50779;SDS011;36748;37.428;-121.972;2022-09-24T09:59:44;3.90;;;2.00;;
50779;SDS011;36748;37.428;-121.972;2022-09-24T10:02:16;4.88;;;2.35;;
50779;SDS011;36748;37.428;-121.972;2022-09-24T10:04:56;3.95;;;2.00;;
50779;SDS011;36748;37.428;-121.972;2022-09-24T10:07:23;4.97;;;2.08;;
50779;SDS011;36748;37.428;-121.972;2022-09-24T10:12:51;3.70;;;2.08;;
50779;SDS011;36748;37.428;-121.972;2022-09-24T10:16:19;5.55;;;2.03;;
50779;SDS011;36748;37.428;-121.972;2022-09-24T10:18:45;5.35;;;2.00;;
50779;SDS011;36748;37.428;-121.972;2022-09-24T10:21:29;6.60;;;2.60;;
50779;SDS011;36748;37.428;-121.972;2022-09-24T10:24:03;4.75;;;1.90;;
50779;SDS011;36748;37.428;-121.972;2022-09-24T10:26:37;3.13;;;1.77;;
50779;SDS011;36748;37.428;-121.972;2022-09-24T10:29:04;4.57;;;1.90;;
50779;SDS011;36748;37.428;-121.972;2022-09-24T10:31:49;4.63;;;2.40;;
50779;SDS011;36748;37.428;-121.972;2022-09-24T10:34:25;4.72;;;2.08;;
50779;SDS011;36748;37.428;-121.972;2022-09-24T10:36:57;3.00;;;2.05;;
50779;SDS011;36748;37.428;-121.972;2022-09-24T10:39:25;5.60;;;1.98;;
50779;SDS011;36748;37.428;-121.972;2022-09-24T10:41:53;6.82;;;2.03;;
50779;SDS011;36748;37.428;-121.972;2022-09-24T10:44:23;2.50;;;2.00;;
50779;SDS011;36748;37.428;-121.972;2022-09-24T10:49:51;5.13;;;2.25;;
50779;SDS011;36748;37.428;-121.972;2022-09-24T10:52:43;2.88;;;2.00;;
50779;SDS011;36748;37.428;-121.972;2022-09-24T10:55:20;4.00;;;2.13;;
50779;SDS011;36748;37.428;-121.972;2022-09-24T11:03:35;3.33;;;2.10;;
50779;SDS011;36748;37.428;-121.972;2022-09-24T11:17:29;3.30;;;2.33;;
50779;SDS011;36748;37.428;-121.972;2022-09-24T11:20:26;2.65;;;2.10;;
50779;SDS011;36748;37.428;-121.972;2022-09-24T11:23:06;2.85;;;2.10;;
50779;SDS011;36748;37.428;-121.972;2022-09-24T11:26:17;2.80;;;1.98;;
50779;SDS011;36748;37.428;-121.972;2022-09-24T11:39:20;4.20;;;2.22;;
50779;SDS011;36748;37.428;-121.972;2022-09-24T11:53:02;2.80;;;2.03;;
50779;SDS011;36748;37.428;-121.972;2022-09-24T11:55:38;3.15;;;2.17;;
50779;SDS011;36748;37.428;-121.972;2022-09-24T12:00:58;3.75;;;2.40;;
50779;SDS011;36748;37.428;-121.972;2022-09-24T12:06:05;4.13;;;2.67;;
50779;SDS011;36748;37.428;-121.972;2022-09-24T12:08:53;5.20;;;2.40;;
50779;SDS011;36748;37.428;-121.972;2022-09-24T12:11:28;3.67;;;2.33;;
50779;SDS011;36748;37.428;-121.972;2022-09-24T12:14:12;4.82;;;2.45;;
50779;SDS011;36748;37.428;-121.972;2022-09-24T12:16:42;2.75;;;2.38;;
50779;SDS011;36748;37.428;-121.972;2022-09-24T12:19:29;4.20;;;2.38;;
50779;SDS011;36748;37.428;-121.972;2022-09-24T12:21:56;3.63;;;2.42;;
50779;SDS011;36748;37.428;-121.972;2022-09-24T12:27:00;3.53;;;2.45;;
50779;SDS011;36748;37.428;-121.972;2022-09-24T12:29:37;2.88;;;2.30;;
50779;SDS011;36748;37.428;-121.972;2022-09-24T12:37:52;5.03;;;1.90;;
50779;SDS011;36748;37.428;-121.972;2022-09-24T12:42:50;2.40;;;1.98;;
50779;SDS011;36748;37.428;-121.972;2022-09-24T12:45:19;3.00;;;1.98;;
50779;SDS011;36748;37.428;-121.972;2022-09-24T12:47:51;2.65;;;2.00;;
50779;SDS011;36748;37.428;-121.972;2022-09-24T12:50:26;3.75;;;2.38;;
50779;SDS011;36748;37.428;-121.972;2022-09-24T12:52:56;3.50;;;2.55;;
50779;SDS011;36748;37.428;-121.972;2022-09-24T12:55:23;4.57;;;2.13;;
50779;SDS011;36748;37.428;-121.972;2022-09-24T12:57:53;2.45;;;2.00;;
50779;SDS011;36748;37.428;-121.972;2022-09-24T13:03:04;2.97;;;2.10;;
50779;SDS011;36748;37.428;-121.972;2022-09-24T13:10:57;2.63;;;1.90;;
50779;SDS011;36748;37.428;-121.972;2022-09-24T13:13:28;3.22;;;2.20;;
50779;SDS011;36748;37.428;-121.972;2022-09-24T13:18:49;3.13;;;2.17;;
50779;SDS011;36748;37.428;-121.972;2022-09-24T13:21:23;5.30;;;2.20;;
50779;SDS011;36748;37.428;-121.972;2022-09-24T13:23:51;2.70;;;1.95;;
50779;SDS011;36748;37.428;-121.972;2022-09-24T13:26:25;3.78;;;2.47;;
50779;SDS011;36748;37.428;-121.972;2022-09-24T13:28:57;2.40;;;2.17;;
50779;SDS011;36748;37.428;-121.972;2022-09-24T13:31:39;3.50;;;2.10;;
50779;SDS011;36748;37.428;-121.972;2022-09-24T13:36:37;4.90;;;2.15;;
50779;SDS011;36748;37.428;-121.972;2022-09-24T13:39:14;4.63;;;2.50;;
50779;SDS011;36748;37.428;-121.972;2022-09-24T13:41:46;4.85;;;2.35;;
50779;SDS011;36748;37.428;-121.972;2022-09-24T13:44:36;2.90;;;2.20;;
50779;SDS011;36748;37.428;-121.972;2022-09-24T13:49:53;2.97;;;2.05;;
50779;SDS011;36748;37.428;-121.972;2022-09-24T13:52:33;2.92;;;2.15;;
50779;SDS011;36748;37.428;-121.972;2022-09-24T13:55:05;3.25;;;2.25;;
50779;SDS011;36748;37.428;-121.972;2022-09-24T13:57:55;3.00;;;2.20;;
50779;SDS011;36748;37.428;-121.972;2022-09-24T14:00:22;3.97;;;2.60;;
50779;SDS011;36748;37.428;-121.972;2022-09-24T14:05:20;3.63;;;2.80;;
50779;SDS011;36748;37.428;-121.972;2022-09-24T14:08:20;8.43;;;3.25;;
50779;SDS011;36748;37.428;-121.972;2022-09-24T14:10:40;4.55;;;3.38;;
50779;SDS011;36748;37.428;-121.972;2022-09-24T14:13:23;6.22;;;3.88;;
50779;SDS011;36748;37.428;-121.972;2022-09-24T14:15:54;3.72;;;2.45;;
50779;SDS011;36748;37.428;-121.972;2022-09-24T14:18:21;6.40;;;2.70;;
50779;SDS011;36748;37.428;-121.972;2022-09-24T14:20:51;6.90;;;3.03;;
50779;SDS011;36748;37.428;-121.972;2022-09-24T14:23:25;4.15;;;2.78;;
50779;SDS011;36748;37.428;-121.972;2022-09-24T14:25:53;7.88;;;2.95;;
50779;SDS011;36748;37.428;-121.972;2022-09-24T14:28:20;7.57;;;3.65;;
50779;SDS011;36748;37.428;-121.972;2022-09-24T14:30:48;9.35;;;4.53;;
50779;SDS011;36748;37.428;-121.972;2022-09-24T14:33:19;14.63;;;5.15;;
50779;SDS011;36748;37.428;-121.972;2022-09-24T14:35:50;9.52;;;4.68;;
50779;SDS011;36748;37.428;-121.972;2022-09-24T14:38:25;11.40;;;5.00;;
50779;SDS011;36748;37.428;-121.972;2022-09-24T14:41:04;9.95;;;4.78;;
50779;SDS011;36748;37.428;-121.972;2022-09-24T14:43:36;8.68;;;3.63;;
50779;SDS011;36748;37.428;-121.972;2022-09-24T14:46:11;8.20;;;3.92;;
50779;SDS011;36748;37.428;-121.972;2022-09-24T14:48:47;7.85;;;4.15;;
50779;SDS011;36748;37.428;-121.972;2022-09-24T14:51:29;7.18;;;3.75;;
50779;SDS011;36748;37.428;-121.972;2022-09-24T14:56:53;6.80;;;3.60;;
50779;SDS011;36748;37.428;-121.972;2022-09-24T14:59:29;6.88;;;3.80;;
50779;SDS011;36748;37.428;-121.972;2022-09-24T15:02:11;6.75;;;3.10;;
50779;SDS011;36748;37.428;-121.972;2022-09-24T15:04:43;8.25;;;3.13;;
50779;SDS011;36748;37.428;-121.972;2022-09-24T15:07:15;5.90;;;3.28;;
50779;SDS011;36748;37.428;-121.972;2022-09-24T15:09:49;5.78;;;3.15;;
50779;SDS011;36748;37.428;-121.972;2022-09-24T15:12:24;7.22;;;3.42;;
50779;SDS011;36748;37.428;-121.972;2022-09-24T15:15:42;5.53;;;3.20;;
50779;SDS011;36748;37.428;-121.972;2022-09-24T15:17:45;7.38;;;3.47;;
50779;SDS011;36748;37.428;-121.972;2022-09-24T15:20:11;4.47;;;2.90;;
50779;SDS011;36748;37.428;-121.972;2022-09-24T15:22:38;5.93;;;3.13;;
50779;SDS011;36748;37.428;-121.972;2022-09-24T15:25:04;5.05;;;3.20;;
50779;SDS011;36748;37.428;-121.972;2022-09-24T15:27:32;6.57;;;3.20;;
50779;SDS011;36748;37.428;-121.972;2022-09-24T15:30:01;5.95;;;2.78;;
50779;SDS011;36748;37.428;-121.972;2022-09-24T15:32:29;4.93;;;2.95;;
50779;SDS011;36748;37.428;-121.972;2022-09-24T15:34:57;5.90;;;3.08;;
50779;SDS011;36748;37.428;-121.972;2022-09-24T15:37:23;6.35;;;3.10;;
50779;SDS011;36748;37.428;-121.972;2022-09-24T15:39:51;6.38;;;2.70;;
50779;SDS011;36748;37.428;-121.972;2022-09-24T15:42:21;10.15;;;2.97;;
50779;SDS011;36748;37.428;-121.972;2022-09-24T15:44:49;5.20;;;3.00;;
50779;SDS011;36748;37.428;-121.972;2022-09-24T15:47:15;7.60;;;2.80;;
50779;SDS011;36748;37.428;-121.972;2022-09-24T15:49:42;3.65;;;2.63;;
50779;SDS011;36748;37.428;-121.972;2022-09-24T15:52:16;6.90;;;3.10;;
50779;SDS011;36748;37.428;-121.972;2022-09-24T15:54:50;5.63;;;2.88;;
50779;SDS011;36748;37.428;-121.972;2022-09-24T15:57:17;4.50;;;2.55;;
50779;SDS011;36748;37.428;-121.972;2022-09-24T15:59:44;5.53;;;3.17;;
50779;SDS011;36748;37.428;-121.972;2022-09-24T16:02:17;4.90;;;2.67;;
50779;SDS011;36748;37.428;-121.972;2022-09-24T16:04:52;4.97;;;2.53;;
50779;SDS011;36748;37.428;-121.972;2022-09-24T16:07:18;9.10;;;3.15;;
50779;SDS011;36748;37.428;-121.972;2022-09-24T16:09:44;7.95;;;3.38;;
50779;SDS011;36748;37.428;-121.972;2022-09-24T16:12:14;5.45;;;2.53;;
50779;SDS011;36748;37.428;-121.972;2022-09-24T16:14:40;4.25;;;2.30;;
50779;SDS011;36748;37.428;-121.972;2022-09-24T16:17:07;6.53;;;2.78;;
50779;SDS011;36748;37.428;-121.972;2022-09-24T16:19:34;4.53;;;2.80;;
50779;SDS011;36748;37.428;-121.972;2022-09-24T16:22:03;8.38;;;2.80;;